ADDS TAF Board (Experimental) INFO Settings
IDs: Format: Expanded Condensed

KSLC - Salt Lake City Intl, UT, US

Issued at 2325 UTC 23 Aug 2016
Updated at 0130 UTC 24 Aug 2016
Time0054Z 24/02Z 24/03Z 24/04Z 24/05Z 24/06Z 24/07Z 24/08Z 24/09Z 24/10Z 24/11Z 24/12Z 24/13Z 24/14Z
Type OBS PRVL PRVL PRVL PRVL PRVL PRVL PRVL PRVL PRVL PRVL PRVL PRVL PRVL
VIS 10 >6 >6 >6 >6 >6 >6 >6 >6 >6 >6 >6 >6 >6
CIG -- -- -- -- -- -- -- -- -- -- -- -- -- --
Cover FEW FEW FEW FEW FEW FEW FEW FEW FEW FEW FEW FEW FEW FEW
FltCat VFR VFR VFR VFR VFR VFR VFR VFR VFR VFR VFR VFR VFR VFR
WX -- -- -- -- -- -- -- -- -- -- -- -- -- --
WDir 10 360 360 360 150 150 150 150 150 150 150 150 150 150
WSpd 6 9 9 9 6 6 6 6 6 6 6 6 6 6
WGst -- -- -- -- -- -- -- -- -- -- -- -- -- --
R14/32
XWnd 4 4 4 4 0 0 0 0 0 0 0 0 0 0
HWnd -5 -8 -8 -8 6 6 6 6 6 6 6 6 6 6
R16/34
XWnd 2 1 1 1 3 3 3 3 3 3 3 3 3 3
HWnd -6 -9 -9 -9 5 5 5 5 5 5 5 5 5 5
R17/35
XWnd 1 -0 -0 -0 3 3 3 3 3 3 3 3 3 3
HWnd -6 -9 -9 -9 5 5 5 5 5 5 5 5 5 5
RHB/18
XWnd -1 0 0 0 -3 -3 -3 -3 -3 -3 -3 -3 -3 -3
HWnd 6 9 9 9 -5 -5 -5 -5 -5 -5 -5 -5 -5 -5

Raw TAF
KSLC 232325Z 2400/2506 36009KT P6SM FEW120 FEW200
  FM240500 15006KT P6SM FEW150
  FM241700 29005KT P6SM SKC
  FM241900 33009G14KT P6SM FEW150


Raw METAR
KSLC 240054Z 01006KT 10SM FEW090 FEW160 FEW230 31/M02 A3000 RMK AO2 SLP099 CB DSNT SE T03111022
KSLC 232354Z 03007KT 10SM FEW110 FEW180 FEW240 31/M02 A3001 RMK AO2 SLP103 CB DSNT SE T03111022 10322 20278 58014
KSLC 232254Z 01013G16KT 10SM FEW110 FEW180 FEW240 32/M02 A3002 RMK AO2 SLP104 T03221022

METAR Board
Radar Display
Forecast Discussion

TAF Board Legend

Potential Impact
Threat None Slight Moderate High
Visibility (sm) ≥5.1 5.1>X≥3 3>X≥1 <1
Ceiling (100 ft) ≥30.1 30.1>X≥10 10>X≥5 <5
Wind Speed (kt) <10 10≤X<20 20≤X<30 ≥30
Wind Gust (kt) <15 15≤X<25 25≤X<35 ≥35
Weather No Wx Reported VCTS,-TS,-FZRA,SN TS,FZRA +TS,+FZRA,+SN